Portada
METAR-TAF:

METAR-TAF

Aeropuertos :

Pryor Field Regional Airport

Decatur, Alabama, Estados Unidos

latitud: 34-39-29N, longitud: 086-56-36W, altitud: 180 m

Observación

El informe se hizo hace 17 minutos, a las 00:53 UTC
Viento 9 kt del oeste
Temperatura 19°C
Humedad 88%
Presión 1016 hPa
Visibilidad: 6.4 km
Nubes dispersas a una altura de 5000 ft
Cielo nuboso a una altura de 7000 ft
Cielo cubierto a una altura de 11000 ft
lluvia ligera, neblina

METAR: KDCU 290053Z AUTO 26009KT 4SM -RA BR SCT050 BKN070 OVC110 19/17 A3001 RMK AO2 PK WND 28027/0015 LTG DSNT SE RAB31 SLP158 P0005 T01890172

Hora: 20:10 (01:10 UTC)


TAF: falta

Observaciones y pronósticos meteorológicos de más de 4000 aeropuertos (mensajes METAR y TAF).

Los puntos amarillos y rojos representan las estaciones disponibles.

Ponga el ratón en el punto deseado para ver el nombre de la estación.

Haga clic para ver las observaciones y los pronósticos meteorológicos.

Para cambiar el mapa : haga clic en los botones verdes con una cruz de color negro para hacer un zoom, en el botón verde con un guión para alejar o en las flechas verdes para mapas adyacentes.


METAR-TAF: